Hot Springs, North Carolina
Current Conditions -  °F | °C
As of 10:54 AM on Saturday 22 Nov 2014 (Local Time) from KAVL Reporting Station
Clear Clear  
Wind Chill: 40°   Ceiling: Unl
Heat Index: 44°   Visibility: 10mi
Dew Point: 18°   Wind: 8mph
Humidity: 35%   Direction: 160°SSE
Pressure: 30.47"   Gusts: NA
Location:  35.89°N, 82.83°W
Report Text: KAVL 221554Z 16007KT 10SM CLR 07/M08 A3047 RMK AO2 SLP325 T00671078
Loading
Personal Weather Stations






























Interactive Weather Map New forecast layout! Learn more

10-Day Weather Forecast

Advertisements
Track Severe Weather on mobile